Weather at Huahine-Fare Airport

Public forecast

Using degrees Celsius for public forecast. Weather courtesy of forecast.io.

Closest aviation weather report (METAR) to Huahine-Fare Airport

Closest report is Faa'a International Airport, 96.4 nm (178.6 km) ESE. Retrieved 2021/08/02 18:30 UTC (22 minutes ago):

NTAA 021830Z 07012KT 9999 FEW026 27/20 Q1016 NOSIG

Closest aviation forecast (TAF) to Huahine-Fare Airport

Closest forecast is Faa'a International Airport, 96.4 nm (178.6 km) ESE. Retrieved 2021/08/02 18:06 UTC (46 minutes ago):

TAF NTAA 021700Z 0218/0324 07010KT 9999 FEW025 BECMG 0303/0306 VRB05KT PROB30 TEMPO 0315/0319 3000 SHRA FEW018TCU BKN040